Time;durP1;ratioP1;P1;durP2;ratioP2;P2;SDS_P1;SDS_P2;PMS_P1;PMS_P2;Temp;Humidity;BMP_temperature;BMP_pressure;BME280_temperature;BME280_humidity;BME280_pressure;Samples;Min_cycle;Max_cycle;Signal;HPM_P1;HPM_P2
2021/05/07 00:01:04;;;;;;;43.50;26.48;;;;;;;;;;5008308;28;20026;-83
2021/05/07 00:03:29;;;;;;;45.97;27.88;;;;;;;;;;4978015;28;20112;-81
2021/05/07 00:05:55;;;;;;;48.35;27.13;;;;;;;;;;4984102;28;20402;-83
2021/05/07 00:08:27;;;;;;;42.72;25.58;;;;;;;;;;4994517;28;20037;-82
2021/05/07 00:10:53;;;;;;;50.17;25.05;;;;;;;;;;4996096;28;20117;-82
2021/05/07 00:13:18;;;;;;;42.80;25.77;;;;;;;;;;4987566;28;20642;-82
2021/05/07 00:15:43;;;;;;;44.00;24.20;;;;;;;;;;4984303;28;20096;-82
2021/05/07 00:18:08;;;;;;;45.95;26.13;;;;;;;;;;5008091;28;20056;-82
2021/05/07 00:20:34;;;;;;;38.10;23.13;;;;;;;;;;4980784;28;20023;-82
2021/05/07 00:22:59;;;;;;;40.00;24.27;;;;;;;;;;4995387;28;20034;-82
2021/05/07 00:25:25;;;;;;;44.92;24.33;;;;;;;;;;4991876;28;20030;-83
2021/05/07 00:27:59;;;;;;;46.78;24.35;;;;;;;;;;4981544;28;20028;-82
2021/05/07 00:30:24;;;;;;;41.75;24.48;;;;;;;;;;5009881;28;20029;-83
2021/05/07 00:32:49;;;;;;;44.47;24.70;;;;;;;;;;4975284;28;20068;-83
2021/05/07 00:35:15;;;;;;;44.47;24.45;;;;;;;;;;4978457;28;20032;-82
2021/05/07 00:37:40;;;;;;;41.17;23.60;;;;;;;;;;4985092;28;20156;-83
2021/05/07 00:40:05;;;;;;;46.50;25.77;;;;;;;;;;4998413;28;20026;-83
2021/05/07 00:42:31;;;;;;;42.97;24.05;;;;;;;;;;4978715;28;20119;-81
2021/05/07 00:44:58;;;;;;;39.25;22.83;;;;;;;;;;4985146;28;20022;-83
2021/05/07 00:47:24;;;;;;;42.20;23.17;;;;;;;;;;4977059;28;20093;-82
2021/05/07 00:49:49;;;;;;;42.72;23.90;;;;;;;;;;4979491;28;20026;-83
2021/05/07 00:52:14;;;;;;;43.33;24.10;;;;;;;;;;4994053;28;20503;-83
2021/05/07 00:54:40;;;;;;;42.75;23.95;;;;;;;;;;5029172;28;20444;-83
2021/05/07 00:57:05;;;;;;;44.97;25.35;;;;;;;;;;4977105;28;20505;-82
2021/05/07 00:59:31;;;;;;;47.53;25.48;;;;;;;;;;4991330;28;20027;-83
2021/05/07 01:01:56;;;;;;;47.95;26.83;;;;;;;;;;4974246;28;20024;-83
2021/05/07 01:04:21;;;;;;;51.03;27.95;;;;;;;;;;4986961;28;20010;-82
2021/05/07 01:06:46;;;;;;;45.08;25.98;;;;;;;;;;5013652;28;20120;-83
2021/05/07 01:09:12;;;;;;;45.42;26.20;;;;;;;;;;5000224;28;20052;-82
2021/05/07 01:11:38;;;;;;;48.85;25.40;;;;;;;;;;4996304;28;20589;-83
2021/05/07 01:14:04;;;;;;;45.72;24.80;;;;;;;;;;4993398;28;20033;-82
2021/05/07 01:16:32;;;;;;;44.88;26.95;;;;;;;;;;4984703;28;20018;-83
2021/05/07 01:18:57;;;;;;;47.65;26.42;;;;;;;;;;4989151;28;20024;-83
2021/05/07 01:21:22;;;;;;;46.25;26.02;;;;;;;;;;5001696;28;20021;-82
2021/05/07 01:23:47;;;;;;;48.38;28.58;;;;;;;;;;4981691;28;20057;-83
2021/05/07 01:26:12;;;;;;;49.45;28.02;;;;;;;;;;4994550;28;20058;-83
2021/05/07 01:28:38;;;;;;;48.38;26.65;;;;;;;;;;4971516;28;20512;-83
2021/05/07 01:31:03;;;;;;;49.53;26.30;;;;;;;;;;4985933;28;20037;-83
2021/05/07 01:33:28;;;;;;;49.17;27.13;;;;;;;;;;5002955;28;20093;-83
2021/05/07 01:35:54;;;;;;;46.42;25.90;;;;;;;;;;5008476;28;20531;-83
2021/05/07 01:38:19;;;;;;;49.17;27.48;;;;;;;;;;4984907;28;20045;-83
2021/05/07 01:40:46;;;;;;;48.35;28.00;;;;;;;;;;4990889;28;20092;-83
2021/05/07 01:43:11;;;;;;;51.45;29.90;;;;;;;;;;5001375;28;20019;-82
2021/05/07 01:45:38;;;;;;;50.05;27.33;;;;;;;;;;4991608;28;20014;-83
2021/05/07 01:48:04;;;;;;;62.10;30.65;;;;;;;;;;4976503;28;20022;-83
2021/05/07 01:50:30;;;;;;;52.88;30.23;;;;;;;;;;4987678;28;20048;-82
2021/05/07 01:52:55;;;;;;;50.70;28.58;;;;;;;;;;4982157;28;20038;-82
2021/05/07 01:55:24;;;;;;;58.13;32.65;;;;;;;;;;4991577;28;20014;-83
2021/05/07 01:57:49;;;;;;;58.05;32.95;;;;;;;;;;4998779;28;20018;-83
2021/05/07 02:00:16;;;;;;;59.10;33.42;;;;;;;;;;5018520;28;20033;-83
2021/05/07 02:02:42;;;;;;;60.80;32.00;;;;;;;;;;4983867;28;20172;-83
2021/05/07 02:05:08;;;;;;;67.32;35.03;;;;;;;;;;4992071;28;20049;-83
2021/05/07 02:07:33;;;;;;;65.43;33.42;;;;;;;;;;4994130;28;20049;-83
2021/05/07 02:09:58;;;;;;;60.30;32.28;;;;;;;;;;4995322;28;20028;-84
2021/05/07 02:12:24;;;;;;;55.88;31.15;;;;;;;;;;4977090;28;20037;-83
2021/05/07 02:14:49;;;;;;;54.17;30.38;;;;;;;;;;4978869;28;20018;-83
2021/05/07 02:17:14;;;;;;;52.95;28.65;;;;;;;;;;4990841;28;20107;-83
2021/05/07 02:19:39;;;;;;;64.68;34.58;;;;;;;;;;4973241;28;20049;-83
2021/05/07 02:22:04;;;;;;;64.95;31.77;;;;;;;;;;4978309;28;20022;-83
2021/05/07 02:24:30;;;;;;;58.22;28.77;;;;;;;;;;4986146;28;20438;-84
2021/05/07 02:26:55;;;;;;;64.60;32.33;;;;;;;;;;4989705;28;20528;-86
2021/05/07 02:29:20;;;;;;;70.43;33.20;;;;;;;;;;4989435;28;20025;-82
2021/05/07 02:31:46;;;;;;;69.32;34.25;;;;;;;;;;4989521;28;20037;-82
2021/05/07 02:34:11;;;;;;;68.35;33.42;;;;;;;;;;4992331;28;20025;-83
2021/05/07 02:36:37;;;;;;;70.95;34.95;;;;;;;;;;4978586;28;20034;-82
2021/05/07 02:39:04;;;;;;;64.57;33.65;;;;;;;;;;4992263;28;20386;-82
2021/05/07 02:41:29;;;;;;;63.38;36.25;;;;;;;;;;5005709;28;20056;-82
2021/05/07 02:43:54;;;;;;;64.78;38.13;;;;;;;;;;5011480;28;20033;-82
2021/05/07 02:46:19;;;;;;;64.72;34.70;;;;;;;;;;4990277;28;20018;-82
2021/05/07 02:48:45;;;;;;;74.18;37.75;;;;;;;;;;5005354;28;20053;-83
2021/05/07 02:51:10;;;;;;;64.60;34.03;;;;;;;;;;5002326;28;20470;-84
2021/05/07 02:53:35;;;;;;;65.43;34.22;;;;;;;;;;4980355;28;20038;-83
2021/05/07 02:56:00;;;;;;;64.78;36.05;;;;;;;;;;5005424;28;20557;-83
2021/05/07 02:58:26;;;;;;;57.85;31.33;;;;;;;;;;4974389;28;20026;-85
2021/05/07 03:00:51;;;;;;;62.35;33.80;;;;;;;;;;4987068;28;20022;-83
2021/05/07 03:03:16;;;;;;;71.45;35.85;;;;;;;;;;5004809;28;20080;-85
2021/05/07 03:05:41;;;;;;;60.90;33.75;;;;;;;;;;5000571;28;20092;-85
2021/05/07 03:08:06;;;;;;;73.43;37.85;;;;;;;;;;4990478;28;20397;-85
2021/05/07 03:10:32;;;;;;;64.53;32.10;;;;;;;;;;4993242;28;20371;-83
2021/05/07 03:12:57;;;;;;;64.78;31.17;;;;;;;;;;4992494;28;20085;-84
2021/05/07 03:15:22;;;;;;;71.38;36.33;;;;;;;;;;4997729;28;20018;-84
2021/05/07 03:17:50;;;;;;;62.90;32.35;;;;;;;;;;4986856;28;20018;-84
2021/05/07 03:20:15;;;;;;;73.07;39.40;;;;;;;;;;4979392;28;20018;-85
2021/05/07 03:22:40;;;;;;;73.90;37.97;;;;;;;;;;4982742;28;20033;-85
2021/05/07 03:25:06;;;;;;;81.60;36.58;;;;;;;;;;4977721;28;20029;-84
2021/05/07 03:27:31;;;;;;;81.22;37.47;;;;;;;;;;5003445;28;20057;-84
2021/05/07 03:29:56;;;;;;;78.50;40.15;;;;;;;;;;5008796;28;20021;-85
2021/05/07 03:32:21;;;;;;;76.25;36.72;;;;;;;;;;4994425;28;20124;-84
2021/05/07 03:34:49;;;;;;;72.70;36.78;;;;;;;;;;5000108;28;20041;-84
2021/05/07 03:37:15;;;;;;;80.32;41.25;;;;;;;;;;4994971;28;20018;-86
2021/05/07 03:39:40;;;;;;;73.32;38.75;;;;;;;;;;4990383;28;20386;-85
2021/05/07 03:42:05;;;;;;;75.93;40.17;;;;;;;;;;5002550;28;20105;-86
2021/05/07 03:44:30;;;;;;;75.85;35.97;;;;;;;;;;4997326;28;20026;-84
2021/05/07 03:46:55;;;;;;;79.97;41.40;;;;;;;;;;5006771;28;20153;-83
2021/05/07 03:49:21;;;;;;;82.75;42.53;;;;;;;;;;4979303;28;20035;-84
2021/05/07 03:51:46;;;;;;;83.45;39.38;;;;;;;;;;4993181;28;20101;-85
2021/05/07 03:54:11;;;;;;;72.65;36.00;;;;;;;;;;5001991;28;20125;-84
2021/05/07 03:56:36;;;;;;;75.28;37.58;;;;;;;;;;4990141;28;20470;-84
2021/05/07 03:59:02;;;;;;;82.60;36.40;;;;;;;;;;4996183;28;20643;-86
2021/05/07 04:01:27;;;;;;;71.18;36.83;;;;;;;;;;4978640;28;20470;-84
2021/05/07 04:03:52;;;;;;;72.88;38.28;;;;;;;;;;4998019;28;20030;-85
2021/05/07 04:06:19;;;;;;;86.43;35.55;;;;;;;;;;4978443;28;20036;-84
2021/05/07 04:08:54;;;;;;;85.00;37.47;;;;;;;;;;5005842;28;20025;-85
2021/05/07 04:11:37;;;;;;;72.50;36.63;;;;;;;;;;4988272;28;20037;-87
2021/05/07 04:14:02;;;;;;;77.78;38.55;;;;;;;;;;5002990;28;20018;-85
2021/05/07 04:16:27;;;;;;;76.10;37.10;;;;;;;;;;4985264;28;20524;-86
2021/05/07 04:18:54;;;;;;;87.03;37.42;;;;;;;;;;5005470;28;20021;-86
2021/05/07 04:21:19;;;;;;;75.32;37.45;;;;;;;;;;5010062;28;20049;-86
2021/05/07 04:23:44;;;;;;;76.47;37.22;;;;;;;;;;4991712;28;20022;-86
2021/05/07 04:26:10;;;;;;;74.05;37.60;;;;;;;;;;4984892;28;20478;-86
2021/05/07 04:28:35;;;;;;;74.93;36.35;;;;;;;;;;4992801;28;20032;-86
2021/05/07 04:31:00;;;;;;;75.28;35.50;;;;;;;;;;4991125;28;20026;-86
2021/05/07 04:33:25;;;;;;;73.85;35.10;;;;;;;;;;4980142;28;20019;-85
2021/05/07 04:35:54;;;;;;;77.88;36.95;;;;;;;;;;4991207;28;20030;-86
2021/05/07 04:38:19;;;;;;;78.03;34.22;;;;;;;;;;4980120;28;20173;-86
2021/05/07 04:40:45;;;;;;;73.00;35.30;;;;;;;;;;5004418;28;20104;-86
2021/05/07 04:43:10;;;;;;;74.93;34.00;;;;;;;;;;4992509;28;20022;-85
2021/05/07 04:48:30;;;;;;;83.63;39.58;;;;;;;;;;4936108;29;20041;-86
2021/05/07 04:50:56;;;;;;;78.65;37.47;;;;;;;;;;4987073;28;20039;-86
2021/05/07 04:53:30;;;;;;;76.40;40.17;;;;;;;;;;4995243;28;20053;-86
2021/05/07 04:56:22;;;;;;;78.25;38.10;;;;;;;;;;5006157;28;20109;-86
2021/05/07 04:58:47;;;;;;;76.97;40.28;;;;;;;;;;4994752;28;20034;-86
2021/05/07 05:01:13;;;;;;;74.35;39.60;;;;;;;;;;5003554;28;20393;-86
2021/05/07 05:03:38;;;;;;;85.95;41.03;;;;;;;;;;4997046;28;20040;-86
2021/05/07 05:06:04;;;;;;;90.13;42.17;;;;;;;;;;4990124;28;20033;-87
2021/05/07 05:08:31;;;;;;;80.40;40.85;;;;;;;;;;5001820;28;20022;-87
2021/05/07 05:11:00;;;;;;;79.30;40.30;;;;;;;;;;5007075;28;20030;-87
2021/05/07 05:13:30;;;;;;;77.55;38.20;;;;;;;;;;4982253;28;20022;-86
2021/05/07 05:15:56;;;;;;;73.32;37.70;;;;;;;;;;5008110;28;20014;-88
2021/05/07 05:18:24;;;;;;;47.10;22.88;;;;;;;;;;4999721;28;20049;-87
2021/05/07 05:21:09;;;;;;;62.85;28.60;;;;;;;;;;4974865;28;20022;-87
2021/05/07 05:23:35;;;;;;;54.92;24.52;;;;;;;;;;4981820;28;20853;-86
2021/05/07 05:26:01;;;;;;;79.63;36.92;;;;;;;;;;4996060;28;20030;-88
2021/05/07 05:28:28;;;;;;;66.32;29.42;;;;;;;;;;4978321;28;20022;-88
2021/05/07 05:30:54;;;;;;;84.05;43.08;;;;;;;;;;4998162;28;20580;-87
2021/05/07 05:33:20;;;;;;;77.78;35.25;;;;;;;;;;4998817;28;20028;-86
2021/05/07 05:35:45;;;;;;;78.80;38.42;;;;;;;;;;4979764;28;20649;-86
2021/05/07 05:38:14;;;;;;;82.35;39.85;;;;;;;;;;5009480;28;20034;-87
2021/05/07 05:40:40;;;;;;;75.25;39.72;;;;;;;;;;4977495;28;20114;-87
2021/05/07 05:43:05;;;;;;;89.07;42.28;;;;;;;;;;4988170;28;20127;-88
2021/05/07 05:48:57;;;;;;;91.22;40.20;;;;;;;;;;4949924;28;20039;-87
2021/05/07 05:51:32;;;;;;;73.47;37.63;;;;;;;;;;4947585;29;20438;-87
2021/05/07 05:54:06;;;;;;;79.47;39.97;;;;;;;;;;4945985;29;20041;-87
2021/05/07 05:56:32;;;;;;;71.57;36.55;;;;;;;;;;4947413;29;20031;-88
2021/05/07 05:59:03;;;;;;;62.90;34.70;;;;;;;;;;4975401;28;20387;-89
2021/05/07 06:01:44;;;;;;;67.32;36.92;;;;;;;;;;4997922;28;20489;-88
2021/05/07 06:04:13;;;;;;;71.28;33.33;;;;;;;;;;4983586;28;20109;-90
2021/05/07 06:06:59;;;;;;;71.28;29.30;;;;;;;;;;4997193;28;20034;-88
2021/05/07 06:09:27;;;;;;;67.55;36.65;;;;;;;;;;5001879;28;20044;-86
2021/05/07 06:11:52;;;;;;;66.15;34.20;;;;;;;;;;4997332;28;20038;-85
2021/05/07 06:14:27;;;;;;;70.80;38.47;;;;;;;;;;4982096;28;20265;-89
2021/05/07 06:16:52;;;;;;;63.10;34.78;;;;;;;;;;5006816;28;20441;-88
2021/05/07 06:19:17;;;;;;;68.78;36.85;;;;;;;;;;4993059;28;20018;-88
2021/05/07 06:21:42;;;;;;;60.45;34.33;;;;;;;;;;5004211;28;20471;-83
2021/05/07 06:24:08;;;;;;;77.13;38.45;;;;;;;;;;5002512;28;20022;-83
2021/05/07 06:26:33;;;;;;;51.28;26.58;;;;;;;;;;4995742;28;20816;-81
2021/05/07 06:28:58;;;;;;;34.47;16.73;;;;;;;;;;4994456;28;20023;-80
2021/05/07 06:31:24;;;;;;;32.60;19.03;;;;;;;;;;4997305;28;20025;-82
2021/05/07 06:33:49;;;;;;;30.85;17.95;;;;;;;;;;4996385;28;20261;-82
2021/05/07 06:36:17;;;;;;;42.70;19.23;;;;;;;;;;4990553;28;20025;-80
2021/05/07 06:38:42;;;;;;;40.92;20.80;;;;;;;;;;5009302;28;20049;-80
2021/05/07 06:41:08;;;;;;;29.40;14.80;;;;;;;;;;4976705;28;20112;-81
2021/05/07 06:43:33;;;;;;;29.27;13.90;;;;;;;;;;4982137;28;20145;-79
2021/05/07 06:45:58;;;;;;;32.90;16.75;;;;;;;;;;5003656;28;20604;-80
2021/05/07 06:48:23;;;;;;;31.15;18.25;;;;;;;;;;4974411;28;20601;-79
2021/05/07 06:50:48;;;;;;;31.90;16.73;;;;;;;;;;4999064;28;20510;-81
2021/05/07 06:53:14;;;;;;;39.63;19.60;;;;;;;;;;4995891;28;20041;-79
2021/05/07 06:55:39;;;;;;;37.75;19.52;;;;;;;;;;4993257;28;20018;-80
2021/05/07 06:58:04;;;;;;;41.10;21.77;;;;;;;;;;5003863;28;20041;-79
2021/05/07 07:00:29;;;;;;;39.10;17.90;;;;;;;;;;4998487;28;20013;-80
2021/05/07 07:02:54;;;;;;;33.05;14.50;;;;;;;;;;4978624;28;20026;-80
2021/05/07 07:05:20;;;;;;;24.52;12.43;;;;;;;;;;4980008;28;20037;-80
2021/05/07 07:07:45;;;;;;;35.08;16.27;;;;;;;;;;5000749;28;20029;-78
2021/05/07 07:10:10;;;;;;;31.02;17.92;;;;;;;;;;4997699;28;20033;-78
2021/05/07 07:12:36;;;;;;;25.83;15.40;;;;;;;;;;4999041;28;20122;-80
2021/05/07 07:15:01;;;;;;;12.95;7.00;;;;;;;;;;4985336;28;20013;-79
2021/05/07 07:17:27;;;;;;;24.08;12.52;;;;;;;;;;5015805;28;20026;-79
2021/05/07 07:19:52;;;;;;;13.65;7.20;;;;;;;;;;5018722;28;20026;-79
2021/05/07 07:22:19;;;;;;;21.15;12.02;;;;;;;;;;5001597;28;20037;-80
2021/05/07 07:24:45;;;;;;;24.85;11.77;;;;;;;;;;4988480;28;20033;-80
2021/05/07 07:27:10;;;;;;;27.30;15.90;;;;;;;;;;5008563;28;20033;-80
2021/05/07 07:29:35;;;;;;;30.58;14.32;;;;;;;;;;5014173;28;20030;-78
2021/05/07 07:32:00;;;;;;;21.95;10.45;;;;;;;;;;5015438;28;20076;-79
2021/05/07 07:34:26;;;;;;;28.13;16.30;;;;;;;;;;5017693;28;20026;-80
2021/05/07 07:36:51;;;;;;;31.77;16.83;;;;;;;;;;5010772;28;20053;-80
2021/05/07 07:39:18;;;;;;;25.27;13.45;;;;;;;;;;5005219;28;20018;-80
2021/05/07 07:41:44;;;;;;;25.88;14.50;;;;;;;;;;4998722;28;20105;-79
2021/05/07 07:44:10;;;;;;;10.55;5.97;;;;;;;;;;4994128;28;20389;-80
2021/05/07 07:46:35;;;;;;;31.90;16.10;;;;;;;;;;5003652;28;20129;-79
2021/05/07 07:49:00;;;;;;;26.35;15.02;;;;;;;;;;4993986;28;20045;-80
2021/05/07 07:51:29;;;;;;;31.08;17.48;;;;;;;;;;5008577;28;20048;-80
2021/05/07 07:53:55;;;;;;;35.63;16.20;;;;;;;;;;5019243;23;20401;-63
2021/05/07 07:56:20;;;;;;;35.83;18.65;;;;;;;;;;5033769;28;20025;-63
2021/05/07 07:58:46;;;;;;;38.85;22.77;;;;;;;;;;5031417;28;20033;-65
2021/05/07 08:01:11;;;;;;;39.30;21.33;;;;;;;;;;5031358;28;20036;-63
2021/05/07 08:03:36;;;;;;;41.45;20.98;;;;;;;;;;5031227;28;20105;-63
2021/05/07 08:06:01;;;;;;;49.13;24.13;;;;;;;;;;5031121;28;20401;-63
2021/05/07 08:08:26;;;;;;;33.97;16.58;;;;;;;;;;5030496;28;20025;-63
2021/05/07 08:10:52;;;;;;;26.13;13.73;;;;;;;;;;5030556;28;20049;-63
2021/05/07 08:13:17;;;;;;;22.65;12.52;;;;;;;;;;5031176;28;20486;-63
2021/05/07 08:15:42;;;;;;;19.17;11.23;;;;;;;;;;5029609;28;20028;-63
2021/05/07 08:18:07;;;;;;;23.13;13.02;;;;;;;;;;5030406;28;20063;-63
2021/05/07 08:20:32;;;;;;;23.98;11.85;;;;;;;;;;5031110;28;20025;-63
2021/05/07 08:22:58;;;;;;;20.83;12.05;;;;;;;;;;5031328;28;20021;-63
2021/05/07 08:25:23;;;;;;;23.20;11.75;;;;;;;;;;5030845;28;20029;-63
2021/05/07 08:27:48;;;;;;;18.17;10.52;;;;;;;;;;5030589;28;20025;-63
2021/05/07 08:30:14;;;;;;;20.08;10.73;;;;;;;;;;5030678;28;20501;-63
2021/05/07 08:32:39;;;;;;;21.33;11.15;;;;;;;;;;5030801;28;20028;-63
2021/05/07 08:35:05;;;;;;;18.00;9.77;;;;;;;;;;5030817;28;20017;-63
2021/05/07 08:37:30;;;;;;;15.20;9.65;;;;;;;;;;5031255;28;20022;-63
2021/05/07 08:39:55;;;;;;;17.88;9.18;;;;;;;;;;5030924;28;20067;-63
2021/05/07 08:42:21;;;;;;;16.27;9.90;;;;;;;;;;5030734;28;20557;-63
2021/05/07 08:44:47;;;;;;;21.90;10.57;;;;;;;;;;5020659;28;20021;-63
2021/05/07 08:47:16;;;;;;;15.95;10.23;;;;;;;;;;5030428;28;20033;-63
2021/05/07 08:49:41;;;;;;;15.40;9.68;;;;;;;;;;5029626;28;20084;-63
2021/05/07 08:52:06;;;;;;;18.60;8.93;;;;;;;;;;5024112;28;20401;-63
2021/05/07 08:54:31;;;;;;;18.13;9.68;;;;;;;;;;5029175;28;20033;-65
2021/05/07 08:56:57;;;;;;;13.10;8.75;;;;;;;;;;5030801;28;20017;-65
2021/05/07 08:59:22;;;;;;;11.50;7.80;;;;;;;;;;5029482;28;20029;-63
2021/05/07 09:01:49;;;;;;;13.48;9.23;;;;;;;;;;5030163;28;20489;-63
2021/05/07 09:04:15;;;;;;;14.57;8.13;;;;;;;;;;5030107;28;20071;-63
2021/05/07 09:06:44;;;;;;;12.57;7.97;;;;;;;;;;5030170;28;20021;-63
2021/05/07 09:09:22;;;;;;;15.05;9.50;;;;;;;;;;5029505;28;20685;-62
2021/05/07 09:11:47;;;;;;;12.13;8.70;;;;;;;;;;5028873;28;20037;-63
2021/05/07 09:14:12;;;;;;;17.33;8.50;;;;;;;;;;5026268;28;20087;-63
2021/05/07 09:16:48;;;;;;;11.63;8.50;;;;;;;;;;5028952;28;20033;-63
2021/05/07 09:19:19;;;;;;;11.48;8.48;;;;;;;;;;5029578;28;20032;-63
2021/05/07 09:21:45;;;;;;;9.13;7.25;;;;;;;;;;5029598;28;21152;-63
2021/05/07 09:24:10;;;;;;;10.60;7.65;;;;;;;;;;5030125;28;20029;-63
2021/05/07 09:26:48;;;;;;;10.07;7.25;;;;;;;;;;5030233;28;20032;-63
2021/05/07 09:29:17;;;;;;;26.35;10.25;;;;;;;;;;5027709;28;20032;-63
2021/05/07 09:31:43;;;;;;;10.45;7.60;;;;;;;;;;5029505;28;20490;-63
2021/05/07 09:34:09;;;;;;;14.77;8.57;;;;;;;;;;5029505;28;20040;-63
2021/05/07 09:36:34;;;;;;;14.73;8.52;;;;;;;;;;5030185;28;20044;-63
2021/05/07 09:38:59;;;;;;;11.57;7.30;;;;;;;;;;5029828;28;20026;-63
2021/05/07 09:41:25;;;;;;;12.32;7.63;;;;;;;;;;5029795;28;20453;-62
2021/05/07 09:43:50;;;;;;;9.93;6.32;;;;;;;;;;5029782;28;20026;-62
2021/05/07 09:46:15;;;;;;;22.23;8.15;;;;;;;;;;5029662;28;20038;-62
2021/05/07 09:48:41;;;;;;;7.57;5.38;;;;;;;;;;5029550;28;20021;-62
2021/05/07 09:51:07;;;;;;;10.88;5.30;;;;;;;;;;5029628;28;20371;-63
2021/05/07 09:53:33;;;;;;;7.43;3.88;;;;;;;;;;5029971;28;20040;-62
2021/05/07 09:56:00;;;;;;;4.75;3.25;;;;;;;;;;5029089;28;20489;-63
2021/05/07 09:58:26;;;;;;;6.78;3.33;;;;;;;;;;5029723;28;20017;-63
2021/05/07 10:00:51;;;;;;;6.38;3.85;;;;;;;;;;5029496;28;20080;-62
2021/05/07 10:03:16;;;;;;;4.93;3.63;;;;;;;;;;5029198;28;20013;-62
2021/05/07 10:05:41;;;;;;;6.40;3.42;;;;;;;;;;5029482;28;20026;-63
2021/05/07 10:08:07;;;;;;;6.15;3.35;;;;;;;;;;5029094;28;20108;-63
2021/05/07 10:10:34;;;;;;;6.05;4.00;;;;;;;;;;5029811;28;20044;-62
2021/05/07 10:13:01;;;;;;;12.48;3.70;;;;;;;;;;5029831;28;20028;-62
2021/05/07 10:15:27;;;;;;;11.32;4.88;;;;;;;;;;5029387;28;20018;-62
2021/05/07 10:17:52;;;;;;;7.72;4.35;;;;;;;;;;5029102;28;20021;-62
2021/05/07 10:20:22;;;;;;;9.68;5.80;;;;;;;;;;5028889;28;20018;-62
2021/05/07 10:22:47;;;;;;;11.65;5.75;;;;;;;;;;5029678;28;20457;-62
2021/05/07 10:25:13;;;;;;;13.90;6.57;;;;;;;;;;5029319;28;20025;-62
2021/05/07 10:27:46;;;;;;;14.50;7.15;;;;;;;;;;5029623;28;20367;-62
2021/05/07 10:30:20;;;;;;;14.00;8.23;;;;;;;;;;5028552;28;20072;-62
2021/05/07 10:32:54;;;;;;;15.07;7.93;;;;;;;;;;5029664;28;20064;-62
2021/05/07 10:35:27;;;;;;;15.77;7.35;;;;;;;;;;5029496;28;20033;-62
2021/05/07 10:37:53;;;;;;;13.13;8.05;;;;;;;;;;5028477;28;20032;-62
2021/05/07 10:40:22;;;;;;;16.98;6.10;;;;;;;;;;5029731;28;20017;-62
2021/05/07 10:42:57;;;;;;;10.95;5.32;;;;;;;;;;5028930;28;20032;-62
2021/05/07 10:45:38;;;;;;;9.85;4.70;;;;;;;;;;5023393;28;20029;-62
2021/05/07 10:48:16;;;;;;;12.40;3.50;;;;;;;;;;5031441;28;20029;-63
2021/05/07 10:50:41;;;;;;;6.30;2.78;;;;;;;;;;5032944;28;20037;-62
2021/05/07 10:53:06;;;;;;;6.22;3.08;;;;;;;;;;5032483;28;20029;-62
2021/05/07 10:55:33;;;;;;;4.28;2.20;;;;;;;;;;5032170;28;20030;-63
2021/05/07 10:57:58;;;;;;;5.80;2.67;;;;;;;;;;5031749;28;20050;-63
2021/05/07 11:00:32;;;;;;;5.88;2.90;;;;;;;;;;5030422;28;20021;-63
2021/05/07 11:02:57;;;;;;;12.25;2.60;;;;;;;;;;5032834;28;20104;-62
2021/05/07 11:05:38;;;;;;;6.30;2.40;;;;;;;;;;5032898;28;20564;-62
2021/05/07 11:08:04;;;;;;;5.07;2.20;;;;;;;;;;5032373;28;20307;-63
2021/05/07 11:10:29;;;;;;;6.07;2.80;;;;;;;;;;5032098;28;20049;-62
2021/05/07 11:12:54;;;;;;;4.90;2.40;;;;;;;;;;5031817;28;20127;-63
2021/05/07 11:15:20;;;;;;;6.57;2.45;;;;;;;;;;5032283;28;20083;-63
2021/05/07 11:17:45;;;;;;;10.48;2.15;;;;;;;;;;5031642;28;20018;-62
2021/05/07 11:20:11;;;;;;;4.95;1.92;;;;;;;;;;5032524;28;20029;-63
2021/05/07 11:22:39;;;;;;;5.78;2.10;;;;;;;;;;5031848;28;20032;-63
2021/05/07 11:25:04;;;;;;;5.30;2.08;;;;;;;;;;5032146;28;20025;-63
2021/05/07 11:27:30;;;;;;;8.57;2.08;;;;;;;;;;5032368;28;20021;-63
2021/05/07 11:29:58;;;;;;;3.25;2.08;;;;;;;;;;5014018;28;20036;-63
2021/05/07 11:32:24;;;;;;;2.90;1.90;;;;;;;;;;5030913;28;20125;-63
2021/05/07 11:34:53;;;;;;;5.65;2.22;;;;;;;;;;5031604;28;20431;-62
2021/05/07 11:37:19;;;;;;;3.63;1.85;;;;;;;;;;5028681;28;20691;-63
2021/05/07 11:40:03;;;;;;;3.78;2.05;;;;;;;;;;5031500;28;20088;-62
2021/05/07 11:42:35;;;;;;;6.20;1.75;;;;;;;;;;5032058;28;20116;-62
2021/05/07 11:45:01;;;;;;;6.10;1.92;;;;;;;;;;5032074;28;20036;-62
2021/05/07 11:47:30;;;;;;;2.72;1.90;;;;;;;;;;5031222;28;20022;-62
2021/05/07 11:49:55;;;;;;;3.53;1.85;;;;;;;;;;5031976;28;20032;-62
2021/05/07 11:52:30;;;;;;;6.65;1.80;;;;;;;;;;5031530;28;20641;-62
2021/05/07 11:54:56;;;;;;;3.40;1.42;;;;;;;;;;5031596;28;20473;-62
2021/05/07 11:57:21;;;;;;;2.78;1.48;;;;;;;;;;5030748;28;20033;-63
2021/05/07 11:59:50;;;;;;;4.88;1.80;;;;;;;;;;5046780;22;20036;-67
2021/05/07 12:02:26;;;;;;;2.05;1.50;;;;;;;;;;5030193;28;20604;-66
2021/05/07 12:04:52;;;;;;;4.10;1.90;;;;;;;;;;5031726;28;20124;-67
2021/05/07 12:07:20;;;;;;;3.17;2.17;;;;;;;;;;5031373;28;20151;-67
2021/05/07 12:09:46;;;;;;;4.50;2.13;;;;;;;;;;5043911;28;20108;-67
2021/05/07 12:12:11;;;;;;;3.75;2.05;;;;;;;;;;5031601;28;20121;-67
2021/05/07 12:14:38;;;;;;;3.87;2.10;;;;;;;;;;5029036;28;20026;-66
2021/05/07 12:17:03;;;;;;;4.38;2.15;;;;;;;;;;5013258;28;20264;-66
2021/05/07 12:19:28;;;;;;;10.40;2.50;;;;;;;;;;5030852;28;20022;-65
2021/05/07 12:21:53;;;;;;;5.63;2.20;;;;;;;;;;5020745;28;20338;-67
2021/05/07 12:24:25;;;;;;;5.00;2.75;;;;;;;;;;5029431;28;20268;-65
2021/05/07 12:26:51;;;;;;;3.08;2.00;;;;;;;;;;5028295;28;20034;-67
2021/05/07 12:29:16;;;;;;;5.10;2.22;;;;;;;;;;5030982;28;20316;-66
2021/05/07 12:31:42;;;;;;;4.20;2.30;;;;;;;;;;5027016;28;20501;-67
2021/05/07 12:34:14;;;;;;;4.03;2.40;;;;;;;;;;5020233;28;20505;-67
2021/05/07 12:36:40;;;;;;;3.75;1.77;;;;;;;;;;5015568;28;20025;-67
2021/05/07 12:39:06;;;;;;;8.55;2.05;;;;;;;;;;5024556;28;20028;-66
2021/05/07 12:41:31;;;;;;;2.22;1.40;;;;;;;;;;5049004;28;20023;-66
2021/05/07 12:43:56;;;;;;;4.63;2.33;;;;;;;;;;5019910;28;20018;-66
2021/05/07 12:46:22;;;;;;;4.47;2.53;;;;;;;;;;5021925;28;20029;-66
2021/05/07 12:48:48;;;;;;;5.03;2.55;;;;;;;;;;5013968;28;20024;-66
2021/05/07 12:51:13;;;;;;;3.55;2.42;;;;;;;;;;5025181;28;20033;-66
2021/05/07 12:53:41;;;;;;;14.10;2.72;;;;;;;;;;5030307;28;20017;-67
2021/05/07 12:56:06;;;;;;;6.32;2.72;;;;;;;;;;5030791;28;20109;-67
2021/05/07 12:58:31;;;;;;;8.00;2.95;;;;;;;;;;5029659;28;20100;-66
2021/05/07 13:00:56;;;;;;;4.07;2.55;;;;;;;;;;5023563;28;20026;-67
2021/05/07 13:03:24;;;;;;;4.87;2.90;;;;;;;;;;5026327;28;20108;-66
2021/05/07 13:05:49;;;;;;;5.00;2.65;;;;;;;;;;5029920;28;20632;-67
2021/05/07 13:08:14;;;;;;;5.17;2.40;;;;;;;;;;5034611;28;20021;-66
2021/05/07 13:10:39;;;;;;;9.98;2.60;;;;;;;;;;5010232;28;20340;-67
2021/05/07 13:13:04;;;;;;;5.20;2.30;;;;;;;;;;5025428;28;20112;-66
2021/05/07 13:15:30;;;;;;;4.10;2.22;;;;;;;;;;5020416;28;20047;-67
2021/05/07 13:17:55;;;;;;;3.75;2.00;;;;;;;;;;5033977;28;20049;-67
2021/05/07 13:20:21;;;;;;;4.53;2.65;;;;;;;;;;5032089;28;20026;-65
2021/05/07 13:22:48;;;;;;;3.05;2.03;;;;;;;;;;5049657;28;20042;-66
2021/05/07 13:25:16;;;;;;;5.05;2.70;;;;;;;;;;5030132;28;20034;-66
2021/05/07 13:27:41;;;;;;;5.55;2.00;;;;;;;;;;5011470;28;20113;-67
2021/05/07 13:30:08;;;;;;;5.78;3.33;;;;;;;;;;5039757;28;20096;-67
2021/05/07 13:32:34;;;;;;;5.47;2.20;;;;;;;;;;5026502;28;20075;-67
2021/05/07 13:34:59;;;;;;;5.30;2.45;;;;;;;;;;5044876;28;20048;-67
2021/05/07 13:37:24;;;;;;;4.28;2.80;;;;;;;;;;5028259;28;20025;-66
2021/05/07 13:39:50;;;;;;;6.22;2.83;;;;;;;;;;5032022;28;20025;-67
2021/05/07 13:42:15;;;;;;;5.53;1.88;;;;;;;;;;5020673;28;20064;-67
2021/05/07 13:44:40;;;;;;;4.82;2.67;;;;;;;;;;5041273;28;20052;-66
2021/05/07 13:47:05;;;;;;;1.88;1.52;;;;;;;;;;5028111;28;20353;-66
2021/05/07 13:49:31;;;;;;;5.03;2.40;;;;;;;;;;5024846;28;20028;-67
2021/05/07 13:51:56;;;;;;;10.40;3.65;;;;;;;;;;5017452;28;20065;-66
2021/05/07 13:54:22;;;;;;;7.75;3.28;;;;;;;;;;5022972;28;20070;-67
2021/05/07 13:56:50;;;;;;;8.13;2.72;;;;;;;;;;5027775;28;20017;-66
2021/05/07 13:59:20;;;;;;;4.88;2.65;;;;;;;;;;5029852;28;20045;-66
2021/05/07 14:01:45;;;;;;;7.13;3.28;;;;;;;;;;5029333;28;20123;-66
2021/05/07 14:04:11;;;;;;;6.70;2.78;;;;;;;;;;5028384;28;20173;-66
2021/05/07 14:06:38;;;;;;;6.93;3.42;;;;;;;;;;5011505;28;20057;-67
2021/05/07 14:09:04;;;;;;;7.45;3.58;;;;;;;;;;5012574;28;20029;-67
2021/05/07 14:11:29;;;;;;;6.13;2.92;;;;;;;;;;5026903;28;20081;-66
2021/05/07 14:13:54;;;;;;;4.72;3.75;;;;;;;;;;5028396;28;20021;-67
2021/05/07 14:16:19;;;;;;;5.47;3.33;;;;;;;;;;5025583;28;20022;-67
2021/05/07 14:18:45;;;;;;;5.78;3.50;;;;;;;;;;5043643;28;20321;-67
2021/05/07 14:21:10;;;;;;;5.13;3.37;;;;;;;;;;5020964;28;20029;-66
2021/05/07 14:23:35;;;;;;;4.72;2.97;;;;;;;;;;5021205;28;20268;-67
2021/05/07 14:26:00;;;;;;;6.97;3.45;;;;;;;;;;5042358;28;20032;-64
2021/05/07 14:28:25;;;;;;;6.17;2.90;;;;;;;;;;5029679;28;20018;-65